createdAt,value
2019-03-17T00:00:01.739Z,966.97
2019-03-17T00:01:01.705Z,966.94
2019-03-17T00:02:01.699Z,966.92
2019-03-17T00:03:01.688Z,966.89
2019-03-17T00:04:01.753Z,966.92
2019-03-17T00:05:01.669Z,966.92
2019-03-17T00:06:01.650Z,966.91
2019-03-17T00:07:01.671Z,966.92
2019-03-17T00:08:01.703Z,966.85
2019-03-17T00:09:01.618Z,966.88
2019-03-17T00:10:01.618Z,966.86
2019-03-17T00:11:01.678Z,966.81
2019-03-17T00:12:01.636Z,966.91
2019-03-17T00:13:01.606Z,966.87
2019-03-17T00:14:01.591Z,966.80
2019-03-17T00:15:05.573Z,966.85
2019-03-17T00:16:01.611Z,966.82
2019-03-17T00:17:01.545Z,966.81
2019-03-17T00:18:01.591Z,966.88
2019-03-17T00:19:01.523Z,966.82
2019-03-17T00:20:01.573Z,966.81
2019-03-17T00:21:01.505Z,966.81
2019-03-17T00:22:01.500Z,966.83
2019-03-17T00:23:01.529Z,966.73
2019-03-17T00:24:01.457Z,966.82
2019-03-17T00:25:09.131Z,966.78
2019-03-17T00:26:02.434Z,966.69
2019-03-17T00:27:01.442Z,966.72
2019-03-17T00:28:01.435Z,966.66
2019-03-17T00:29:01.423Z,966.70
2019-03-17T00:30:01.395Z,966.69
2019-03-17T00:31:01.382Z,966.69
2019-03-17T00:32:01.369Z,966.61
2019-03-17T00:33:01.372Z,966.68
2019-03-17T00:34:01.395Z,966.62
2019-03-17T00:35:01.382Z,966.64
2019-03-17T00:36:01.329Z,966.59
2019-03-17T00:37:01.366Z,966.61
2019-03-17T00:38:01.308Z,966.60
2019-03-17T00:39:01.348Z,966.59
2019-03-17T00:40:01.304Z,966.54
2019-03-17T00:41:01.384Z,966.53
2019-03-17T00:42:01.266Z,966.47
2019-03-17T00:43:01.297Z,966.51
2019-03-17T00:44:01.319Z,966.53
2019-03-17T00:45:01.232Z,966.56
2019-03-17T00:46:01.225Z,966.55
2019-03-17T00:47:01.243Z,966.51
2019-03-17T00:48:01.204Z,966.51
2019-03-17T00:49:01.206Z,966.49
2019-03-17T00:50:01.262Z,966.52
2019-03-17T00:51:01.164Z,966.53
2019-03-17T00:52:01.159Z,966.48
2019-03-17T00:53:01.167Z,966.50
2019-03-17T00:54:01.149Z,966.48
2019-03-17T00:55:01.146Z,966.46
2019-03-17T00:56:01.279Z,966.48
2019-03-17T00:57:01.103Z,966.46
2019-03-17T00:58:01.089Z,966.44
2019-03-17T00:59:01.084Z,966.46
2019-03-17T01:00:01.254Z,966.47
2019-03-17T01:01:01.071Z,966.47
2019-03-17T01:02:01.061Z,966.36
2019-03-17T01:03:01.090Z,966.37
2019-03-17T01:04:01.354Z,966.41
2019-03-17T01:05:01.022Z,966.36
2019-03-17T01:06:01.020Z,966.37
2019-03-17T01:07:00.995Z,966.34
2019-03-17T01:08:01.036Z,966.36
2019-03-17T01:09:00.978Z,966.35
2019-03-17T01:10:00.979Z,966.37
2019-03-17T01:11:00.961Z,966.34
2019-03-17T01:12:00.939Z,966.33
2019-03-17T01:13:00.940Z,966.29
2019-03-17T01:14:00.944Z,966.37
2019-03-17T01:15:00.922Z,966.30
2019-03-17T01:16:00.894Z,966.40
2019-03-17T01:17:00.924Z,966.37
2019-03-17T01:18:00.987Z,966.32
2019-03-17T01:19:00.883Z,966.37
2019-03-17T01:20:00.870Z,966.32
2019-03-17T01:21:00.852Z,966.28
2019-03-17T01:22:00.910Z,966.29
2019-03-17T01:23:00.821Z,966.25
2019-03-17T01:24:00.839Z,966.24
2019-03-17T01:25:00.801Z,966.20
2019-03-17T01:26:00.799Z,966.21
2019-03-17T01:27:00.802Z,966.17
2019-03-17T01:28:00.776Z,966.19
2019-03-17T01:29:00.786Z,966.19
2019-03-17T01:30:00.767Z,966.15
2019-03-17T01:31:00.763Z,966.12
2019-03-17T01:32:00.722Z,966.20
2019-03-17T01:33:00.710Z,966.16
2019-03-17T01:34:00.783Z,966.16
2019-03-17T01:35:08.994Z,966.12
2019-03-17T01:36:01.685Z,966.19
2019-03-17T01:37:00.665Z,966.10
2019-03-17T01:38:00.653Z,966.07
2019-03-17T01:39:00.679Z,966.03
2019-03-17T01:40:00.677Z,966.06
2019-03-17T01:41:00.625Z,966.09
2019-03-17T01:42:00.611Z,966.06
2019-03-17T01:43:00.612Z,966.07
2019-03-17T01:44:00.634Z,966.06
2019-03-17T01:45:00.578Z,966.03
2019-03-17T01:46:00.569Z,966.05
2019-03-17T01:47:00.565Z,966.03
2019-03-17T01:48:00.647Z,966.01
2019-03-17T01:49:00.548Z,966.03
2019-03-17T01:50:00.540Z,965.98
2019-03-17T01:51:00.515Z,966.03
2019-03-17T01:52:00.515Z,965.99
2019-03-17T01:53:00.505Z,965.99
2019-03-17T01:54:00.582Z,965.98
2019-03-17T01:55:00.479Z,966.05
2019-03-17T01:56:00.460Z,965.98
2019-03-17T01:57:00.487Z,966.00
2019-03-17T01:58:00.453Z,966.02
2019-03-17T01:59:00.452Z,965.99
2019-03-17T02:00:00.425Z,966.06
2019-03-17T02:01:00.406Z,966.02
2019-03-17T02:02:00.451Z,965.95
2019-03-17T02:03:00.386Z,966.01
2019-03-17T02:04:00.391Z,965.88
2019-03-17T02:05:00.400Z,965.89
2019-03-17T02:06:00.350Z,965.96
2019-03-17T02:07:00.341Z,965.84
2019-03-17T02:08:00.336Z,965.87
2019-03-17T02:09:00.367Z,965.90
2019-03-17T02:10:00.373Z,965.89
2019-03-17T02:11:00.328Z,965.92
2019-03-17T02:12:00.310Z,965.88
2019-03-17T02:13:00.279Z,965.87
2019-03-17T02:14:00.268Z,965.85
2019-03-17T02:15:00.430Z,965.83
2019-03-17T02:16:00.272Z,965.85
2019-03-17T02:17:00.289Z,965.85
2019-03-17T02:18:00.232Z,965.90
2019-03-17T02:19:00.222Z,965.87
2019-03-17T02:20:00.370Z,965.85
2019-03-17T02:21:00.191Z,965.86
2019-03-17T02:22:00.198Z,965.83
2019-03-17T02:23:00.198Z,965.82
2019-03-17T02:24:00.162Z,965.84
2019-03-17T02:25:00.372Z,965.80
2019-03-17T02:26:00.148Z,965.84
2019-03-17T02:27:00.137Z,965.79
2019-03-17T02:28:00.117Z,965.79
2019-03-17T02:29:00.120Z,965.80
2019-03-17T02:30:00.300Z,965.80
2019-03-17T02:31:00.085Z,965.81
2019-03-17T02:32:00.084Z,965.79
2019-03-17T02:33:00.104Z,965.74
2019-03-17T02:34:00.060Z,965.74
2019-03-17T02:35:00.042Z,965.70
2019-03-17T02:36:00.038Z,965.66
2019-03-17T02:37:00.014Z,965.67
2019-03-17T02:38:00.208Z,965.67
2019-03-17T02:38:59.995Z,965.63
2019-03-17T02:39:59.984Z,965.58
2019-03-17T02:40:59.976Z,965.64
2019-03-17T02:41:59.964Z,965.66
2019-03-17T02:42:59.991Z,965.65
2019-03-17T02:44:00.018Z,965.64
2019-03-17T02:44:59.951Z,965.62
2019-03-17T02:46:02.860Z,965.61
2019-03-17T02:46:59.910Z,965.58
2019-03-17T02:47:59.899Z,965.61
2019-03-17T02:48:59.887Z,965.62
2019-03-17T02:49:59.929Z,965.61
2019-03-17T02:51:00.438Z,965.62
2019-03-17T02:51:59.858Z,965.64
2019-03-17T02:52:59.858Z,965.62
2019-03-17T02:53:59.829Z,965.60
2019-03-17T02:54:59.836Z,965.57
2019-03-17T02:55:59.805Z,965.58
2019-03-17T02:56:59.802Z,965.51
2019-03-17T02:57:59.796Z,965.52
2019-03-17T02:58:59.779Z,965.55
2019-03-17T02:59:59.931Z,965.52
2019-03-17T03:00:59.808Z,965.52
2019-03-17T03:01:59.770Z,965.50
2019-03-17T03:02:59.730Z,965.56
2019-03-17T03:03:59.724Z,965.51
2019-03-17T03:04:59.790Z,965.49
2019-03-17T03:05:59.705Z,965.48
2019-03-17T03:06:59.693Z,965.50
2019-03-17T03:07:59.681Z,965.49
2019-03-17T03:08:59.679Z,965.51
2019-03-17T03:09:59.660Z,965.46
2019-03-17T03:10:59.649Z,965.50
2019-03-17T03:11:59.676Z,965.41
2019-03-17T03:12:59.639Z,965.42
2019-03-17T03:13:59.671Z,965.42
2019-03-17T03:14:59.602Z,965.40
2019-03-17T03:15:59.592Z,965.38
2019-03-17T03:16:59.724Z,965.42
2019-03-17T03:17:59.592Z,965.41
2019-03-17T03:18:59.566Z,965.36
2019-03-17T03:19:59.567Z,965.43
2019-03-17T03:20:59.542Z,965.37
2019-03-17T03:21:59.530Z,965.39
2019-03-17T03:22:59.550Z,965.38
2019-03-17T03:23:59.554Z,965.39
2019-03-17T03:24:59.512Z,965.43
2019-03-17T03:25:59.494Z,965.39
2019-03-17T03:26:59.485Z,965.38
2019-03-17T03:27:59.479Z,965.43
2019-03-17T03:28:59.451Z,965.38
2019-03-17T03:29:59.444Z,965.50
2019-03-17T03:30:59.436Z,965.58
2019-03-17T03:31:59.417Z,965.52
2019-03-17T03:32:59.419Z,965.46
2019-03-17T03:33:59.410Z,965.42
2019-03-17T03:34:59.474Z,965.38
2019-03-17T03:36:10.553Z,965.55
2019-03-17T03:37:00.555Z,965.48
2019-03-17T03:37:59.383Z,965.51
2019-03-17T03:38:59.374Z,965.54
2019-03-17T03:39:59.342Z,965.34
2019-03-17T03:40:59.378Z,965.53
2019-03-17T03:41:59.310Z,965.47
2019-03-17T03:42:59.322Z,965.41
2019-03-17T03:43:59.310Z,965.31
2019-03-17T03:44:59.346Z,965.38
2019-03-17T03:45:59.266Z,965.48
2019-03-17T03:46:59.254Z,965.44
2019-03-17T03:47:59.257Z,965.30
2019-03-17T03:48:59.232Z,965.30
2019-03-17T03:49:59.234Z,965.43
2019-03-17T03:50:59.234Z,965.35
2019-03-17T03:51:59.223Z,965.35
2019-03-17T03:52:59.207Z,965.34
2019-03-17T03:53:59.198Z,965.31
2019-03-17T03:54:59.188Z,965.31
2019-03-17T03:55:59.190Z,965.40
2019-03-17T03:56:59.163Z,965.30
2019-03-17T03:57:59.150Z,965.35
2019-03-17T03:58:59.129Z,965.31
2019-03-17T03:59:59.185Z,965.32
2019-03-17T04:00:59.187Z,965.40
2019-03-17T04:01:59.201Z,965.34
2019-03-17T04:02:59.180Z,965.31
2019-03-17T04:03:59.156Z,965.33
2019-03-17T04:04:59.270Z,965.33
2019-03-17T04:05:59.070Z,965.36
2019-03-17T04:06:59.047Z,965.30
2019-03-17T04:07:59.039Z,965.29
2019-03-17T04:08:59.019Z,965.26
2019-03-17T04:09:59.013Z,965.31
2019-03-17T04:10:59.063Z,965.27
2019-03-17T04:11:58.984Z,965.24
2019-03-17T04:12:58.980Z,965.23
2019-03-17T04:13:58.978Z,965.23
2019-03-17T04:14:58.986Z,965.24
2019-03-17T04:15:58.954Z,965.20
2019-03-17T04:16:58.962Z,965.21
2019-03-17T04:17:58.934Z,965.13
2019-03-17T04:18:58.913Z,965.18
2019-03-17T04:19:59.056Z,965.17
2019-03-17T04:20:58.912Z,965.18
2019-03-17T04:21:58.876Z,965.28
2019-03-17T04:22:58.867Z,965.19
2019-03-17T04:23:58.861Z,965.22
2019-03-17T04:24:58.879Z,965.19
2019-03-17T04:25:58.916Z,965.20
2019-03-17T04:26:59.731Z,965.20
2019-03-17T04:27:58.808Z,965.21
2019-03-17T04:28:58.805Z,965.18
2019-03-17T04:29:58.798Z,965.21
2019-03-17T04:30:58.793Z,965.13
2019-03-17T04:31:58.772Z,965.22
2019-03-17T04:32:58.764Z,965.10
2019-03-17T04:33:58.776Z,965.14
2019-03-17T04:34:58.865Z,965.11
2019-03-17T04:35:58.729Z,965.13
2019-03-17T04:36:58.722Z,965.09
2019-03-17T04:37:58.705Z,965.12
2019-03-17T04:38:58.690Z,965.04
2019-03-17T04:39:58.686Z,965.08
2019-03-17T04:40:58.692Z,965.11
2019-03-17T04:41:58.711Z,965.10
2019-03-17T04:42:58.663Z,965.03
2019-03-17T04:43:58.656Z,965.00
2019-03-17T04:44:58.627Z,965.00
2019-03-17T04:45:58.648Z,965.05
2019-03-17T04:46:58.641Z,964.99
2019-03-17T04:47:58.592Z,965.00
2019-03-17T04:48:58.700Z,964.99
2019-03-17T04:49:58.623Z,964.98
2019-03-17T04:50:58.569Z,965.01
2019-03-17T04:51:58.564Z,964.98
2019-03-17T04:52:58.623Z,964.95
2019-03-17T04:53:58.565Z,964.98
2019-03-17T04:54:58.548Z,965.04
2019-03-17T04:55:58.520Z,964.99
2019-03-17T04:56:58.556Z,965.10
2019-03-17T04:57:58.484Z,965.05
2019-03-17T04:58:58.496Z,965.05
2019-03-17T04:59:58.526Z,964.96
2019-03-17T05:00:58.463Z,965.03
2019-03-17T05:01:58.462Z,965.04
2019-03-17T05:02:58.468Z,965.00
2019-03-17T05:03:58.426Z,965.01
2019-03-17T05:04:58.414Z,965.00
2019-03-17T05:05:58.430Z,964.94
2019-03-17T05:06:58.417Z,965.05
2019-03-17T05:07:58.423Z,965.06
2019-03-17T05:08:58.365Z,965.06
2019-03-17T05:09:58.370Z,965.08
2019-03-17T05:10:58.386Z,965.00
2019-03-17T05:11:58.406Z,965.08
2019-03-17T05:12:58.326Z,965.05
2019-03-17T05:13:58.323Z,965.09
2019-03-17T05:14:58.301Z,965.06
2019-03-17T05:15:58.404Z,965.06
2019-03-17T05:16:58.337Z,965.06
2019-03-17T05:17:58.279Z,965.16
2019-03-17T05:18:58.265Z,965.14
2019-03-17T05:19:58.277Z,965.18
2019-03-17T05:20:58.273Z,965.14
2019-03-17T05:21:58.273Z,965.20
2019-03-17T05:22:58.248Z,965.15
2019-03-17T05:23:58.215Z,965.19
2019-03-17T05:24:58.200Z,965.19
2019-03-17T05:25:58.204Z,965.19
2019-03-17T05:26:58.217Z,965.19
2019-03-17T05:27:58.171Z,965.16
2019-03-17T05:28:58.174Z,965.08
2019-03-17T05:29:58.139Z,965.12
2019-03-17T05:30:58.154Z,965.10
2019-03-17T05:31:58.128Z,965.13
2019-03-17T05:32:58.154Z,965.06
2019-03-17T05:33:58.116Z,965.02
2019-03-17T05:34:58.106Z,965.05
2019-03-17T05:35:58.075Z,965.04
2019-03-17T05:37:06.256Z,965.03
2019-03-17T05:37:59.059Z,964.97
2019-03-17T05:38:58.042Z,964.99
2019-03-17T05:39:58.045Z,965.03
2019-03-17T05:40:58.173Z,964.96
2019-03-17T05:41:58.030Z,964.99
2019-03-17T05:42:58.031Z,964.92
2019-03-17T05:43:58.015Z,964.83
2019-03-17T05:44:57.982Z,964.93
2019-03-17T05:45:57.984Z,964.88
2019-03-17T05:46:57.960Z,964.86
2019-03-17T05:47:58.021Z,964.85
2019-03-17T05:48:57.945Z,964.93
2019-03-17T05:49:57.956Z,964.88
2019-03-17T05:50:57.913Z,964.88
2019-03-17T05:51:57.926Z,964.91
2019-03-17T05:52:57.898Z,964.95
2019-03-17T05:53:57.912Z,965.00
2019-03-17T05:54:57.905Z,964.97
2019-03-17T05:55:57.858Z,964.96
2019-03-17T05:56:57.879Z,964.97
2019-03-17T05:57:57.855Z,964.79
2019-03-17T05:58:57.850Z,964.77
2019-03-17T05:59:57.823Z,964.84
2019-03-17T06:00:57.804Z,964.81
2019-03-17T06:01:57.794Z,964.90
2019-03-17T06:02:57.905Z,964.82
2019-03-17T06:03:57.772Z,964.75
2019-03-17T06:04:57.857Z,964.75
2019-03-17T06:05:57.796Z,964.71
2019-03-17T06:06:57.752Z,964.58
2019-03-17T06:07:57.744Z,964.63
2019-03-17T06:08:57.738Z,964.67
2019-03-17T06:09:57.765Z,964.60
2019-03-17T06:10:57.710Z,964.51
2019-03-17T06:11:57.717Z,964.54
2019-03-17T06:12:57.691Z,964.58
2019-03-17T06:13:57.707Z,964.66
2019-03-17T06:14:57.673Z,964.67
2019-03-17T06:15:57.673Z,964.76
2019-03-17T06:16:57.663Z,964.81
2019-03-17T06:17:57.658Z,964.91
2019-03-17T06:18:57.750Z,964.82
2019-03-17T06:19:57.620Z,964.83
2019-03-17T06:20:57.734Z,964.70
2019-03-17T06:22:00.386Z,964.77
2019-03-17T06:22:57.582Z,964.85
2019-03-17T06:23:57.568Z,964.80
2019-03-17T06:24:57.572Z,964.72
2019-03-17T06:25:57.602Z,964.77
2019-03-17T06:26:57.585Z,964.80
2019-03-17T06:27:57.561Z,964.91
2019-03-17T06:28:57.508Z,964.73
2019-03-17T06:29:57.516Z,964.63
2019-03-17T06:30:57.491Z,964.78
2019-03-17T06:31:57.635Z,964.85
2019-03-17T06:32:57.477Z,964.80
2019-03-17T06:33:57.463Z,964.76
2019-03-17T06:34:57.453Z,964.83
2019-03-17T06:35:57.423Z,964.75
2019-03-17T06:36:57.421Z,964.73
2019-03-17T06:37:57.440Z,964.75
2019-03-17T06:38:57.404Z,964.85
2019-03-17T06:39:57.393Z,964.74
2019-03-17T06:40:57.375Z,964.73
2019-03-17T06:41:57.391Z,964.69
2019-03-17T06:42:57.856Z,964.72
2019-03-17T06:43:57.436Z,964.62
2019-03-17T06:44:57.349Z,964.69
2019-03-17T06:45:57.328Z,964.70
2019-03-17T06:46:57.356Z,964.65
2019-03-17T06:47:57.360Z,964.59
2019-03-17T06:48:57.305Z,964.56
2019-03-17T06:49:57.272Z,964.52
2019-03-17T06:50:57.269Z,964.68
2019-03-17T06:51:57.277Z,964.51
2019-03-17T06:52:57.271Z,964.50
2019-03-17T06:53:57.412Z,964.56
2019-03-17T06:54:57.306Z,964.58
2019-03-17T06:55:57.257Z,964.45
2019-03-17T06:56:57.209Z,964.48
2019-03-17T06:57:57.203Z,964.54
2019-03-17T06:58:57.268Z,964.55
2019-03-17T06:59:57.322Z,964.46
2019-03-17T07:00:57.220Z,964.47
2019-03-17T07:01:57.146Z,964.41
2019-03-17T07:02:57.141Z,964.42
2019-03-17T07:03:57.119Z,964.45
2019-03-17T07:04:57.152Z,964.56
2019-03-17T07:05:57.157Z,964.58
2019-03-17T07:06:57.258Z,964.60
2019-03-17T07:07:57.172Z,964.61
2019-03-17T07:08:57.068Z,964.60
2019-03-17T07:09:57.055Z,964.63
2019-03-17T07:10:57.155Z,964.64
2019-03-17T07:11:57.101Z,964.53
2019-03-17T07:12:57.023Z,964.63
2019-03-17T07:13:57.022Z,964.63
2019-03-17T07:14:57.038Z,964.65
2019-03-17T07:15:56.997Z,964.60
2019-03-17T07:16:57.010Z,964.70
2019-03-17T07:17:56.983Z,964.66
2019-03-17T07:18:56.965Z,964.71
2019-03-17T07:19:56.947Z,964.68
2019-03-17T07:20:56.941Z,964.65
2019-03-17T07:21:56.962Z,964.69
2019-03-17T07:22:56.924Z,964.60
2019-03-17T07:23:56.928Z,964.57
2019-03-17T07:24:56.917Z,964.52
2019-03-17T07:25:56.992Z,964.51
2019-03-17T07:26:56.874Z,964.59
2019-03-17T07:27:56.996Z,964.59
2019-03-17T07:28:56.889Z,964.55
2019-03-17T07:29:56.851Z,964.62
2019-03-17T07:30:56.829Z,964.60
2019-03-17T07:31:56.815Z,964.75
2019-03-17T07:32:56.830Z,964.67
2019-03-17T07:33:56.832Z,964.57
2019-03-17T07:34:56.791Z,964.57
2019-03-17T07:35:56.788Z,964.66
2019-03-17T07:36:56.835Z,964.60
2019-03-17T07:37:57.354Z,964.53
2019-03-17T07:38:56.761Z,964.54
2019-03-17T07:39:56.740Z,964.51
2019-03-17T07:40:56.732Z,964.59
2019-03-17T07:41:56.734Z,964.56
2019-03-17T07:42:56.701Z,964.54
2019-03-17T07:43:56.717Z,964.59
2019-03-17T07:44:56.708Z,964.51
2019-03-17T07:45:56.697Z,964.52
2019-03-17T07:46:56.711Z,964.44
2019-03-17T07:47:56.644Z,964.43
2019-03-17T07:48:56.651Z,964.46
2019-03-17T07:49:56.638Z,964.40
2019-03-17T07:50:56.702Z,964.42
2019-03-17T07:51:57.103Z,964.42
2019-03-17T07:52:56.623Z,964.36
2019-03-17T07:53:56.580Z,964.34
2019-03-17T07:54:56.581Z,964.43
2019-03-17T07:55:56.566Z,964.30
2019-03-17T07:56:56.634Z,964.30
2019-03-17T07:57:56.552Z,964.41
2019-03-17T07:58:57.210Z,964.30
2019-03-17T07:59:56.652Z,964.35
2019-03-17T08:00:56.511Z,964.38
2019-03-17T08:01:56.529Z,964.36
2019-03-17T08:02:56.506Z,964.35
2019-03-17T08:03:56.490Z,964.36
2019-03-17T08:04:56.494Z,964.39
2019-03-17T08:05:56.450Z,964.38
2019-03-17T08:06:56.459Z,964.42
2019-03-17T08:08:08.178Z,964.41
2019-03-17T08:08:57.473Z,964.39
2019-03-17T08:09:56.438Z,964.35
2019-03-17T08:10:56.462Z,964.38
2019-03-17T08:11:56.434Z,964.29
2019-03-17T08:12:56.387Z,964.32
2019-03-17T08:13:56.370Z,964.32
2019-03-17T08:14:57.801Z,964.33
2019-03-17T08:15:56.351Z,964.20
2019-03-17T08:16:56.348Z,964.28
2019-03-17T08:17:56.321Z,964.31
2019-03-17T08:18:56.308Z,964.27
2019-03-17T08:19:56.313Z,964.19
2019-03-17T08:20:56.438Z,964.22
2019-03-17T08:21:56.285Z,964.25
2019-03-17T08:22:56.288Z,964.19
2019-03-17T08:23:56.282Z,964.23
2019-03-17T08:24:56.263Z,964.18
2019-03-17T08:25:56.325Z,964.15
2019-03-17T08:26:56.264Z,964.23
2019-03-17T08:27:57.251Z,964.07
2019-03-17T08:28:56.349Z,964.12
2019-03-17T08:29:56.342Z,964.04
2019-03-17T08:30:56.197Z,964.06
2019-03-17T08:31:56.193Z,964.03
2019-03-17T08:32:56.282Z,964.08
2019-03-17T08:33:56.170Z,964.06
2019-03-17T08:34:56.162Z,964.07
2019-03-17T08:35:56.135Z,963.98
2019-03-17T08:36:56.139Z,964.01
2019-03-17T08:37:56.110Z,964.01
2019-03-17T08:38:56.143Z,964.02
2019-03-17T08:39:56.106Z,963.97
2019-03-17T08:40:56.131Z,963.96
2019-03-17T08:41:56.135Z,964.03
2019-03-17T08:42:56.073Z,964.11
2019-03-17T08:43:56.043Z,964.05
2019-03-17T08:44:56.263Z,964.20
2019-03-17T08:45:56.027Z,964.18
2019-03-17T08:46:56.008Z,964.13
2019-03-17T08:47:58.175Z,964.17
2019-03-17T08:48:55.996Z,964.10
2019-03-17T08:49:56.218Z,964.13
2019-03-17T08:50:55.972Z,964.14
2019-03-17T08:51:56.024Z,964.14
2019-03-17T08:52:55.973Z,964.14
2019-03-17T08:53:55.929Z,964.19
2019-03-17T08:54:55.925Z,964.11
2019-03-17T08:55:55.917Z,964.11
2019-03-17T08:56:55.915Z,964.05
2019-03-17T08:57:56.013Z,964.08
2019-03-17T08:58:55.878Z,964.10
2019-03-17T08:59:55.888Z,964.02
2019-03-17T09:00:55.889Z,964.05
2019-03-17T09:01:55.859Z,963.95
2019-03-17T09:02:55.837Z,963.98
2019-03-17T09:03:55.847Z,963.91
2019-03-17T09:04:55.885Z,963.96
2019-03-17T09:05:55.867Z,963.95
2019-03-17T09:06:55.824Z,963.94
2019-03-17T09:07:55.800Z,963.91
2019-03-17T09:08:55.801Z,963.88
2019-03-17T09:09:55.839Z,963.91
2019-03-17T09:10:55.762Z,963.89
2019-03-17T09:11:55.749Z,963.86
2019-03-17T09:12:55.730Z,963.80
2019-03-17T09:13:55.747Z,963.86
2019-03-17T09:14:55.770Z,963.85
2019-03-17T09:15:55.711Z,963.81
2019-03-17T09:16:55.699Z,963.83
2019-03-17T09:17:55.678Z,963.82
2019-03-17T09:18:56.199Z,963.84
2019-03-17T09:19:55.659Z,963.83
2019-03-17T09:20:55.653Z,963.78
2019-03-17T09:21:55.653Z,963.83
2019-03-17T09:22:55.636Z,963.82
2019-03-17T09:23:55.638Z,963.75
2019-03-17T09:24:55.688Z,963.81
2019-03-17T09:25:55.612Z,963.82
2019-03-17T09:26:55.609Z,963.81
2019-03-17T09:27:55.564Z,963.86
2019-03-17T09:28:55.556Z,963.92
2019-03-17T09:29:55.559Z,963.85
2019-03-17T09:30:55.567Z,963.83
2019-03-17T09:31:55.547Z,963.85
2019-03-17T09:32:55.525Z,963.82
2019-03-17T09:33:55.495Z,963.87
2019-03-17T09:34:55.558Z,963.80
2019-03-17T09:35:55.507Z,963.77
2019-03-17T09:36:55.513Z,963.80
2019-03-17T09:37:55.466Z,963.83
2019-03-17T09:38:55.468Z,963.80
2019-03-17T09:39:55.496Z,963.78
2019-03-17T09:40:55.520Z,963.81
2019-03-17T09:41:55.468Z,963.87
2019-03-17T09:42:55.423Z,963.82
2019-03-17T09:43:55.384Z,963.83
2019-03-17T09:44:55.387Z,963.79
2019-03-17T09:45:55.393Z,963.82
2019-03-17T09:46:55.356Z,963.81
2019-03-17T09:47:55.528Z,963.75
2019-03-17T09:48:55.358Z,963.75
2019-03-17T09:49:55.323Z,963.71
2019-03-17T09:50:55.312Z,963.67
2019-03-17T09:51:55.298Z,963.70
2019-03-17T09:52:55.289Z,963.65
2019-03-17T09:53:55.279Z,963.61
2019-03-17T09:54:55.330Z,963.58
2019-03-17T09:55:55.274Z,963.59
2019-03-17T09:56:55.272Z,963.59
2019-03-17T09:57:55.234Z,963.58
2019-03-17T09:58:55.236Z,963.55
2019-03-17T09:59:55.219Z,963.51
2019-03-17T10:00:55.246Z,963.44
2019-03-17T10:01:56.039Z,963.48
2019-03-17T10:02:55.221Z,963.51
2019-03-17T10:03:55.227Z,963.44
2019-03-17T10:04:55.278Z,963.47
2019-03-17T10:05:55.166Z,963.43
2019-03-17T10:06:55.140Z,963.38
2019-03-17T10:07:55.147Z,963.37
2019-03-17T10:09:00.028Z,963.37
2019-03-17T10:09:56.104Z,963.32
2019-03-17T10:10:55.124Z,963.30
2019-03-17T10:11:55.107Z,963.25
2019-03-17T10:12:55.073Z,963.19
2019-03-17T10:13:55.082Z,963.18
2019-03-17T10:14:55.059Z,963.16
2019-03-17T10:15:55.051Z,963.08
2019-03-17T10:16:55.062Z,963.21
2019-03-17T10:17:55.020Z,963.15
2019-03-17T10:18:55.008Z,963.19
2019-03-17T10:19:55.113Z,963.11
2019-03-17T10:20:55.000Z,963.07
2019-03-17T10:21:54.989Z,963.07
2019-03-17T10:22:54.985Z,962.96
2019-03-17T10:23:55.054Z,963.07
2019-03-17T10:24:54.990Z,963.03
2019-03-17T10:25:55.058Z,963.03
2019-03-17T10:26:54.919Z,963.06
2019-03-17T10:27:54.977Z,963.01
2019-03-17T10:28:54.911Z,963.03
2019-03-17T10:29:54.943Z,963.08
2019-03-17T10:30:54.919Z,963.09
2019-03-17T10:31:54.897Z,963.01
2019-03-17T10:32:54.857Z,962.99
2019-03-17T10:33:54.845Z,963.03
2019-03-17T10:34:54.876Z,963.00
2019-03-17T10:35:54.928Z,963.00
2019-03-17T10:36:54.819Z,962.89
2019-03-17T10:37:54.823Z,962.93
2019-03-17T10:38:54.791Z,962.85
2019-03-17T10:39:54.810Z,962.84
2019-03-17T10:40:54.797Z,962.85
2019-03-17T10:41:54.762Z,962.82
2019-03-17T10:42:54.810Z,962.82
2019-03-17T10:43:54.741Z,962.80
2019-03-17T10:44:54.910Z,962.78
2019-03-17T10:45:54.790Z,962.85
2019-03-17T10:46:54.704Z,962.75
2019-03-17T10:47:54.783Z,962.67
2019-03-17T10:48:54.696Z,962.62
2019-03-17T10:49:54.678Z,962.63
2019-03-17T10:50:54.806Z,962.50
2019-03-17T10:51:54.654Z,962.52
2019-03-17T10:52:54.803Z,962.50
2019-03-17T10:53:54.637Z,962.48
2019-03-17T10:54:54.629Z,962.40
2019-03-17T10:55:54.643Z,962.38
2019-03-17T10:56:54.602Z,962.40
2019-03-17T10:57:54.612Z,962.39
2019-03-17T10:58:54.717Z,962.43
2019-03-17T10:59:54.676Z,962.48
2019-03-17T11:00:54.575Z,962.38
2019-03-17T11:01:54.546Z,962.42
2019-03-17T11:02:54.544Z,962.55
2019-03-17T11:03:54.534Z,962.44
2019-03-17T11:04:54.525Z,962.35
2019-03-17T11:05:54.619Z,962.35
2019-03-17T11:06:54.523Z,962.36
2019-03-17T11:07:54.490Z,962.32
2019-03-17T11:08:54.476Z,962.28
2019-03-17T11:09:54.492Z,962.32
2019-03-17T11:10:54.511Z,962.23
2019-03-17T11:11:54.453Z,962.37
2019-03-17T11:12:54.445Z,962.38
2019-03-17T11:13:54.432Z,962.39
2019-03-17T11:14:54.438Z,962.31
2019-03-17T11:15:54.447Z,962.34
2019-03-17T11:16:54.459Z,962.24
2019-03-17T11:17:54.497Z,962.21
2019-03-17T11:18:54.368Z,962.23
2019-03-17T11:19:54.410Z,962.25
2019-03-17T11:20:54.372Z,962.16
2019-03-17T11:21:54.732Z,962.19
2019-03-17T11:22:54.416Z,962.18
2019-03-17T11:23:54.345Z,962.13
2019-03-17T11:24:54.334Z,962.23
2019-03-17T11:25:54.327Z,962.22
2019-03-17T11:26:55.738Z,962.29
2019-03-17T11:27:54.278Z,962.33
2019-03-17T11:28:54.274Z,962.36
2019-03-17T11:29:54.268Z,962.32
2019-03-17T11:30:54.258Z,962.23
2019-03-17T11:31:54.257Z,962.24
2019-03-17T11:32:54.257Z,962.32
2019-03-17T11:33:54.221Z,962.35
2019-03-17T11:34:54.230Z,962.24
2019-03-17T11:35:54.258Z,962.21
2019-03-17T11:36:54.193Z,962.24
2019-03-17T11:37:54.174Z,962.21
2019-03-17T11:38:54.174Z,962.27
2019-03-17T11:39:54.185Z,962.29
2019-03-17T11:40:54.181Z,962.37
2019-03-17T11:41:54.148Z,962.31
2019-03-17T11:42:54.149Z,962.34
2019-03-17T11:43:54.116Z,962.21
2019-03-17T11:44:54.226Z,962.20
2019-03-17T11:45:54.095Z,962.20
2019-03-17T11:46:54.083Z,962.13
2019-03-17T11:47:54.128Z,962.14
2019-03-17T11:48:54.099Z,962.20
2019-03-17T11:49:54.053Z,962.12
2019-03-17T11:50:54.192Z,962.06
2019-03-17T11:51:54.038Z,962.15
2019-03-17T11:52:54.021Z,962.02
2019-03-17T11:53:54.033Z,962.09
2019-03-17T11:54:54.011Z,962.04
2019-03-17T11:55:54.000Z,961.98
2019-03-17T11:56:54.076Z,962.00
2019-03-17T11:57:54.007Z,961.96
2019-03-17T11:58:53.976Z,961.88
2019-03-17T11:59:53.951Z,961.91
2019-03-17T12:00:53.975Z,961.99
2019-03-17T12:01:54.003Z,961.93
2019-03-17T12:02:53.922Z,961.85
2019-03-17T12:03:53.907Z,961.74
2019-03-17T12:04:53.896Z,961.69
2019-03-17T12:05:53.957Z,961.72
2019-03-17T12:06:53.898Z,961.94
2019-03-17T12:07:53.869Z,961.86
2019-03-17T12:08:53.881Z,961.76
2019-03-17T12:09:53.849Z,961.70
2019-03-17T12:10:53.848Z,961.87
2019-03-17T12:11:53.834Z,961.83
2019-03-17T12:12:53.850Z,961.70
2019-03-17T12:13:53.821Z,961.59
2019-03-17T12:14:53.793Z,961.59
2019-03-17T12:15:53.779Z,961.58
2019-03-17T12:16:53.802Z,961.44
2019-03-17T12:17:53.758Z,961.42
2019-03-17T12:18:53.758Z,961.51
2019-03-17T12:19:53.742Z,961.42
2019-03-17T12:20:53.728Z,961.36
2019-03-17T12:21:53.764Z,961.25
2019-03-17T12:22:53.714Z,961.20
2019-03-17T12:23:53.697Z,961.22
2019-03-17T12:24:53.697Z,961.18
2019-03-17T12:25:53.677Z,961.14
2019-03-17T12:26:53.679Z,961.19
2019-03-17T12:27:53.686Z,961.20